Time;durP1;ratioP1;P1;durP2;ratioP2;P2;SDS_P1;SDS_P2;PMS_P1;PMS_P2;Temp;Humidity;BMP_temperature;BMP_pressure;BME280_temperature;BME280_humidity;BME280_pressure;Samples;Min_cycle;Max_cycle;Signal;HPM_P1;HPM_P2
2021/01/08 00:02:06;;;;;;;24.17;11.60;;;0.60;99.90;;;;;;5050684;28;20025;-74
2021/01/08 00:04:31;;;;;;;24.27;11.60;;;0.50;99.90;;;;;;5050803;28;20021;-74
2021/01/08 00:06:57;;;;;;;23.83;11.60;;;0.50;99.90;;;;;;5048867;28;20072;-74
2021/01/08 00:09:23;;;;;;;22.85;11.20;;;0.50;99.90;;;;;;5049254;28;20032;-74
2021/01/08 00:11:57;;;;;;;23.00;11.68;;;0.50;99.90;;;;;;5050696;28;20025;-74
2021/01/08 00:14:23;;;;;;;29.15;10.70;;;0.40;99.90;;;;;;5049405;28;20653;-74
2021/01/08 00:16:48;;;;;;;23.40;11.38;;;0.40;99.90;;;;;;5048635;28;20021;-74
2021/01/08 00:19:14;;;;;;;25.75;11.88;;;0.30;99.90;;;;;;5049493;28;20025;-74
2021/01/08 00:21:43;;;;;;;28.05;12.00;;;0.30;99.90;;;;;;5049253;28;20068;-74
2021/01/08 00:24:12;;;;;;;22.20;10.73;;;0.30;99.90;;;;;;5049384;28;20017;-75
2021/01/08 00:26:40;;;;;;;24.85;11.80;;;0.30;99.90;;;;;;5047847;28;20027;-74
2021/01/08 00:29:10;;;;;;;24.65;11.48;;;0.30;99.90;;;;;;5049367;28;20052;-75
2021/01/08 00:31:40;;;;;;;24.33;11.90;;;0.30;99.90;;;;;;5050553;28;20399;-75
2021/01/08 00:34:06;;;;;;;;;;;0.30;99.90;;;;;;5050995;28;20029;-74
2021/01/08 00:36:33;;;;;;;24.60;11.23;;;0.30;99.90;;;;;;5049775;28;19920;-74
2021/01/08 00:38:59;;;;;;;24.50;11.77;;;0.30;99.90;;;;;;5050666;28;20029;-74
2021/01/08 00:41:33;;;;;;;29.58;14.85;;;0.30;99.90;;;;;;5050767;28;20036;-74
2021/01/08 00:44:01;;;;;;;25.13;11.85;;;0.30;99.90;;;;;;5050762;28;20036;-74
2021/01/08 00:46:47;;;;;;;23.70;11.98;;;0.30;99.90;;;;;;5048762;28;20120;-76
2021/01/08 00:49:13;;;;;;;27.65;12.43;;;0.30;99.90;;;;;;5050740;28;20392;-75
2021/01/08 00:51:38;;;;;;;23.42;12.02;;;0.30;99.90;;;;;;5050571;28;20029;-75
2021/01/08 00:54:05;;;;;;;23.50;11.10;;;0.20;99.90;;;;;;5049167;28;20034;-74
2021/01/08 00:56:31;;;;;;;22.80;11.43;;;0.30;99.90;;;;;;5049809;28;20021;-75
2021/01/08 00:58:56;;;;;;;23.30;11.23;;;0.20;99.90;;;;;;5049089;28;20491;-74
2021/01/08 01:01:22;;;;;;;22.50;11.48;;;0.30;99.90;;;;;;5053416;28;20064;-73
2021/01/08 01:03:48;;;;;;;24.88;11.90;;;0.20;99.90;;;;;;5053882;28;20025;-74
2021/01/08 01:06:26;;;;;;;26.25;11.13;;;0.20;99.90;;;;;;5051986;28;20495;-74
2021/01/08 01:08:52;;;;;;;22.25;11.88;;;0.20;99.90;;;;;;5052604;28;20013;-74
2021/01/08 01:11:19;;;;;;;23.35;11.82;;;0.30;99.90;;;;;;5052588;28;20025;-74
2021/01/08 01:13:45;;;;;;;25.95;12.75;;;0.30;99.90;;;;;;5053831;28;20032;-74
2021/01/08 01:16:13;;;;;;;22.23;11.48;;;0.30;99.90;;;;;;5051684;28;20379;-75
2021/01/08 01:18:39;;;;;;;26.73;12.80;;;0.30;99.90;;;;;;5052488;28;20024;-74
2021/01/08 01:21:05;;;;;;;27.95;12.23;;;0.30;99.90;;;;;;5053680;28;20029;-75
2021/01/08 01:23:30;;;;;;;25.88;12.45;;;0.30;99.90;;;;;;5053552;28;20035;-74
2021/01/08 01:25:56;;;;;;;25.35;12.20;;;0.20;99.90;;;;;;5051987;28;20021;-73
2021/01/08 01:28:21;;;;;;;23.13;11.68;;;0.20;99.90;;;;;;5052143;28;20025;-74
2021/01/08 01:30:47;;;;;;;24.65;11.85;;;0.20;99.90;;;;;;5053351;28;20025;-74
2021/01/08 01:33:12;;;;;;;25.70;12.20;;;0.20;99.90;;;;;;5053431;28;20029;-72
2021/01/08 01:35:38;;;;;;;20.35;11.32;;;0.20;99.90;;;;;;5051793;28;20029;-72
2021/01/08 01:38:03;;;;;;;25.23;11.85;;;0.20;99.90;;;;;;5052788;28;20029;-72
2021/01/08 01:40:29;;;;;;;25.20;12.15;;;0.20;99.90;;;;;;5052057;28;20032;-72
2021/01/08 01:42:55;;;;;;;25.67;12.43;;;0.10;99.90;;;;;;5053322;28;20368;-72
2021/01/08 01:45:20;;;;;;;24.67;12.40;;;0.10;99.90;;;;;;5051827;28;20494;-72
2021/01/08 01:47:46;;;;;;;24.60;12.32;;;0.10;99.90;;;;;;5052539;28;20389;-72
2021/01/08 01:50:12;;;;;;;26.05;12.13;;;0.10;99.90;;;;;;5053122;28;20048;-71
2021/01/08 01:52:38;;;;;;;21.08;10.65;;;0.20;99.90;;;;;;5051790;28;20114;-73
2021/01/08 01:55:05;;;;;;;23.45;11.60;;;0.30;99.90;;;;;;5052932;28;20021;-72
2021/01/08 01:57:31;;;;;;;23.77;11.30;;;0.30;99.90;;;;;;5051150;28;20025;-72
2021/01/08 01:59:57;;;;;;;25.23;11.50;;;0.20;99.90;;;;;;5052880;28;20502;-72
2021/01/08 02:02:27;;;;;;;23.38;11.10;;;0.20;99.90;;;;;;5052787;28;20025;-72
2021/01/08 02:04:55;;;;;;;22.50;12.05;;;0.20;99.90;;;;;;5052844;28;20526;-71
2021/01/08 02:07:23;;;;;;;24.05;11.60;;;0.20;99.90;;;;;;5050926;28;20032;-73
2021/01/08 02:09:50;;;;;;;23.52;11.55;;;0.30;99.90;;;;;;5052848;28;20040;-72
2021/01/08 02:12:16;;;;;;;22.70;11.77;;;0.30;99.90;;;;;;5052228;28;20025;-73
2021/01/08 02:14:44;;;;;;;20.38;10.68;;;0.40;99.90;;;;;;5051266;28;20025;-72
2021/01/08 02:17:13;;;;;;;21.05;10.70;;;0.40;99.90;;;;;;5052071;28;20043;-71
2021/01/08 02:20:01;;;;;;;21.17;9.93;;;0.80;99.90;;;;;;5052769;28;20483;-71
2021/01/08 02:22:29;;;;;;;19.98;9.93;;;0.80;99.90;;;;;;5052590;28;20124;-73
2021/01/08 02:25:05;;;;;;;19.73;10.27;;;0.70;99.90;;;;;;5052529;28;20405;-72
2021/01/08 02:27:33;;;;;;;18.85;10.50;;;0.70;99.90;;;;;;5049839;28;20116;-72
2021/01/08 02:30:00;;;;;;;21.58;10.90;;;0.60;99.90;;;;;;5052546;28;20108;-73
2021/01/08 02:32:25;;;;;;;20.52;9.63;;;0.60;99.90;;;;;;5051330;28;20059;-71
2021/01/08 02:34:52;;;;;;;22.42;10.82;;;0.60;99.90;;;;;;5052279;28;20480;-71
2021/01/08 02:37:19;;;;;;;20.65;10.32;;;0.50;99.90;;;;;;5050478;28;20040;-72
2021/01/08 02:39:45;;;;;;;20.25;9.95;;;0.50;99.90;;;;;;5052344;28;20510;-71
2021/01/08 02:42:13;;;;;;;22.65;10.23;;;0.50;99.90;;;;;;5052140;28;20056;-73
2021/01/08 02:44:38;;;;;;;21.25;10.90;;;0.40;99.90;;;;;;5052086;28;20491;-71
2021/01/08 02:47:04;;;;;;;21.95;10.30;;;0.40;99.90;;;;;;5051437;28;20056;-72
2021/01/08 02:49:29;;;;;;;26.50;12.90;;;0.40;99.90;;;;;;5052088;28;20056;-72
2021/01/08 02:51:59;;;;;;;31.63;12.55;;;0.40;99.90;;;;;;5051997;28;20036;-73
2021/01/08 02:54:26;;;;;;;23.20;11.60;;;0.30;99.90;;;;;;5052075;28;20039;-72
2021/01/08 02:56:54;;;;;;;25.83;11.38;;;0.30;99.90;;;;;;5051222;28;20021;-73
2021/01/08 02:59:21;;;;;;;22.20;11.75;;;0.30;99.90;;;;;;5050534;28;20578;-72
2021/01/08 03:01:48;;;;;;;21.15;10.80;;;0.30;99.90;;;;;;5050363;28;20479;-73
2021/01/08 03:04:13;;;;;;;23.05;11.98;;;0.30;99.90;;;;;;5050420;28;20480;-73
2021/01/08 03:06:41;;;;;;;23.27;11.23;;;0.30;99.90;;;;;;5051036;28;20031;-71
2021/01/08 03:09:07;;;;;;;20.58;10.80;;;0.40;99.90;;;;;;5050416;28;20044;-72
2021/01/08 03:11:33;;;;;;;23.50;11.10;;;0.50;99.90;;;;;;5050485;28;20443;-71
2021/01/08 03:13:59;;;;;;;19.35;9.88;;;0.60;99.90;;;;;;5051405;28;20120;-72
2021/01/08 03:16:25;;;;;;;22.77;11.05;;;0.60;99.90;;;;;;5051229;28;20033;-72
2021/01/08 03:18:50;;;;;;;25.48;11.43;;;0.60;99.90;;;;;;5050157;28;20036;-72
2021/01/08 03:21:16;;;;;;;26.00;11.82;;;0.60;99.90;;;;;;5050409;28;20467;-72
2021/01/08 03:23:42;;;;;;;24.88;11.52;;;0.50;99.90;;;;;;5049423;28;20025;-72
2021/01/08 03:26:07;;;;;;;23.65;11.60;;;0.50;99.90;;;;;;5048655;28;20025;-72
2021/01/08 03:28:32;;;;;;;22.25;10.55;;;0.60;99.90;;;;;;5051458;28;20063;-72
2021/01/08 03:30:58;;;;;;;21.85;10.65;;;0.50;99.90;;;;;;5050141;28;20024;-72
2021/01/08 03:33:24;;;;;;;24.13;11.23;;;0.50;99.90;;;;;;5051376;28;20123;-72
2021/01/08 03:35:49;;;;;;;23.15;11.43;;;0.50;99.90;;;;;;5050938;28;20029;-72
2021/01/08 03:38:15;;;;;;;26.45;12.23;;;0.50;99.90;;;;;;5050564;28;20025;-73
2021/01/08 03:40:41;;;;;;;34.90;15.52;;;0.50;99.90;;;;;;5049823;28;20036;-72
2021/01/08 03:43:07;;;;;;;25.33;12.68;;;0.50;99.90;;;;;;5050946;28;20025;-72
2021/01/08 03:45:33;;;;;;;23.23;11.18;;;0.50;99.90;;;;;;5047505;28;20021;-71
2021/01/08 03:47:59;;;;;;;22.63;11.23;;;0.50;99.90;;;;;;5050371;28;20013;-71
2021/01/08 03:50:24;;;;;;;25.02;11.75;;;0.50;99.90;;;;;;5049688;28;20025;-73
2021/01/08 03:52:50;;;;;;;21.88;12.18;;;0.50;99.90;;;;;;5051022;28;20071;-71
2021/01/08 03:55:15;;;;;;;20.13;10.15;;;0.50;99.90;;;;;;5050894;28;20124;-72
2021/01/08 03:57:41;;;;;;;21.90;10.25;;;0.60;99.90;;;;;;5049055;28;20462;-71
2021/01/08 04:00:07;;;;;;;18.13;9.70;;;0.70;99.90;;;;;;5050935;28;20074;-72
2021/01/08 04:02:33;;;;;;;20.55;10.75;;;0.70;99.90;;;;;;5050839;28;20025;-72
2021/01/08 04:04:59;;;;;;;21.10;10.70;;;0.80;99.90;;;;;;5050918;28;20017;-72
2021/01/08 04:07:24;;;;;;;20.92;10.75;;;0.70;99.90;;;;;;5050417;28;20029;-71
2021/01/08 04:09:50;;;;;;;21.80;11.10;;;0.70;99.90;;;;;;5049709;28;20494;-71
2021/01/08 04:12:15;;;;;;;19.52;10.07;;;0.70;99.90;;;;;;5050933;28;20798;-71
2021/01/08 04:14:41;;;;;;;20.77;10.27;;;0.80;99.90;;;;;;5050945;28;20075;-75
2021/01/08 04:17:06;;;;;;;18.98;9.65;;;0.90;99.90;;;;;;5049184;28;20036;-72
2021/01/08 04:19:32;;;;;;;19.77;9.93;;;0.90;99.90;;;;;;5049750;28;20025;-72
2021/01/08 04:21:57;;;;;;;18.63;10.57;;;0.90;99.90;;;;;;5050832;28;20395;-72
2021/01/08 04:24:23;;;;;;;20.85;9.57;;;0.90;99.90;;;;;;5049663;28;20086;-74
2021/01/08 04:26:48;;;;;;;20.23;10.52;;;0.70;99.90;;;;;;5047387;28;20024;-71
2021/01/08 04:29:14;;;;;;;20.75;10.88;;;0.70;99.90;;;;;;5049694;28;20021;-72
2021/01/08 04:31:41;;;;;;;18.13;9.57;;;0.60;99.90;;;;;;5049486;28;20116;-72
2021/01/08 04:34:07;;;;;;;23.27;11.43;;;0.60;99.90;;;;;;5050758;28;20078;-71
2021/01/08 04:36:33;;;;;;;21.67;10.82;;;0.50;99.90;;;;;;5053775;28;20450;-72
2021/01/08 04:38:59;;;;;;;22.77;11.90;;;0.50;99.90;;;;;;5053196;28;20033;-72
2021/01/08 04:41:25;;;;;;;20.90;9.88;;;0.50;99.90;;;;;;5053053;28;20080;-72
2021/01/08 04:43:50;;;;;;;20.45;10.07;;;0.50;99.90;;;;;;5054306;28;20028;-71
2021/01/08 04:46:23;;;;;;;20.00;9.52;;;0.50;99.90;;;;;;5053767;28;20017;-73
2021/01/08 04:48:52;;;;;;;22.13;10.52;;;0.50;99.90;;;;;;5052971;28;20028;-72
2021/01/08 04:51:18;;;;;;;21.23;10.70;;;0.50;99.90;;;;;;5054328;28;20025;-71
2021/01/08 04:53:44;;;;;;;19.67;10.23;;;0.50;99.90;;;;;;5052904;28;20025;-73
2021/01/08 04:56:12;;;;;;;22.42;11.40;;;0.50;99.90;;;;;;5052057;28;20379;-72
2021/01/08 04:58:38;;;;;;;21.08;10.93;;;0.50;99.90;;;;;;5054194;28;20028;-72
2021/01/08 05:01:04;;;;;;;19.00;10.40;;;0.50;99.90;;;;;;5052872;28;20029;-72
2021/01/08 05:03:30;;;;;;;21.50;10.02;;;0.50;99.90;;;;;;5054020;28;20053;-72
2021/01/08 05:05:56;;;;;;;19.30;10.00;;;0.50;99.90;;;;;;5052671;28;20024;-72
2021/01/08 05:08:22;;;;;;;22.45;10.23;;;0.50;99.90;;;;;;5051859;28;20040;-72
2021/01/08 05:10:49;;;;;;;20.27;10.20;;;0.60;99.90;;;;;;5052534;28;20480;-73
2021/01/08 05:13:14;;;;;;;24.55;10.60;;;0.60;99.90;;;;;;5053823;28;20025;-72
2021/01/08 05:15:43;;;;;;;22.45;10.48;;;0.60;99.90;;;;;;5053833;28;20048;-72
2021/01/08 05:18:09;;;;;;;19.85;9.82;;;0.60;99.90;;;;;;5053145;28;20035;-72
2021/01/08 05:20:36;;;;;;;18.98;10.77;;;0.60;99.90;;;;;;5052444;28;20033;-71
2021/01/08 05:23:03;;;;;;;24.65;14.77;;;0.60;99.90;;;;;;5052278;28;20025;-73
2021/01/08 05:25:29;;;;;;;21.42;11.25;;;0.60;99.90;;;;;;5052168;28;20078;-72
2021/01/08 05:27:54;;;;;;;19.10;9.77;;;0.70;99.90;;;;;;5050462;28;20028;-72
2021/01/08 05:30:26;;;;;;;18.30;10.40;;;0.70;99.90;;;;;;5053611;28;20025;-72
2021/01/08 05:32:57;;;;;;;18.85;10.63;;;0.70;99.90;;;;;;5052265;28;20052;-72
2021/01/08 05:35:23;;;;;;;19.60;10.68;;;0.60;99.90;;;;;;5053306;28;20029;-72
2021/01/08 05:37:51;;;;;;;19.33;10.65;;;0.60;99.90;;;;;;5052894;28;20079;-72
2021/01/08 05:40:26;;;;;;;18.85;10.85;;;0.60;99.90;;;;;;5053303;28;20036;-73
2021/01/08 05:43:00;;;;;;;19.17;10.38;;;0.70;99.90;;;;;;5053274;28;20041;-71
2021/01/08 05:45:27;;;;;;;19.50;9.80;;;0.60;99.90;;;;;;5052821;28;20025;-74
2021/01/08 05:47:55;;;;;;;19.40;10.52;;;0.60;99.90;;;;;;5051615;28;20021;-74
2021/01/08 05:50:22;;;;;;;20.65;11.80;;;0.60;99.90;;;;;;5053340;28;20028;-73
2021/01/08 05:53:08;;;;;;;20.55;10.57;;;0.60;99.90;;;;;;5052001;28;20028;-74
2021/01/08 05:55:39;;;;;;;19.80;10.90;;;0.60;99.90;;;;;;5051955;28;20549;-74
2021/01/08 05:58:19;;;;;;;19.48;10.52;;;0.70;99.90;;;;;;5051359;28;20029;-74
2021/01/08 06:00:57;;;;;;;19.77;10.57;;;0.70;99.90;;;;;;5053315;28;20029;-72
2021/01/08 06:03:24;;;;;;;21.17;11.35;;;0.70;99.90;;;;;;5051833;28;20024;-75
2021/01/08 06:06:00;;;;;;;23.65;14.82;;;0.70;99.90;;;;;;5051823;28;20116;-74
2021/01/08 06:08:30;;;;;;;22.70;13.48;;;0.70;99.90;;;;;;5051708;28;20017;-74
2021/01/08 06:10:57;;;;;;;;;;;0.70;99.90;;;;;;5052237;28;20032;-74
2021/01/08 06:13:34;;;;;;;22.05;11.52;;;0.70;99.90;;;;;;5052902;28;20360;-74
2021/01/08 06:16:04;;;;;;;26.13;12.02;;;0.70;99.90;;;;;;5051271;28;20039;-73
2021/01/08 06:18:35;;;;;;;20.35;10.80;;;0.70;99.90;;;;;;5051539;28;20104;-72
2021/01/08 06:21:09;;;;;;;22.85;12.55;;;0.70;99.90;;;;;;5053164;28;20033;-75
2021/01/08 06:23:36;;;;;;;18.40;10.65;;;0.70;99.90;;;;;;5052445;28;20108;-74
2021/01/08 06:26:04;;;;;;;20.25;11.48;;;0.70;99.90;;;;;;5049354;28;20027;-70
2021/01/08 06:28:38;;;;;;;22.58;12.63;;;0.70;99.90;;;;;;5051363;28;20021;-71
2021/01/08 06:31:23;;;;;;;22.10;11.82;;;0.70;99.90;;;;;;5051423;28;20021;-74
2021/01/08 06:33:56;;;;;;;17.42;9.75;;;0.70;99.90;;;;;;5052219;28;20041;-74
2021/01/08 06:36:25;;;;;;;21.27;11.32;;;0.70;99.90;;;;;;5051766;28;20469;-73
2021/01/08 06:38:56;;;;;;;18.20;10.45;;;0.70;99.90;;;;;;5051874;28;20028;-73
2021/01/08 06:41:22;;;;;;;21.60;11.65;;;0.70;99.90;;;;;;5051309;28;20029;-74
2021/01/08 06:43:50;;;;;;;20.40;11.48;;;0.70;99.90;;;;;;5052770;28;20380;-73
2021/01/08 06:46:28;;;;;;;23.58;11.52;;;0.80;99.90;;;;;;5050487;28;20060;-73
2021/01/08 06:49:11;;;;;;;18.05;9.77;;;0.80;99.90;;;;;;5052565;28;20017;-73
2021/01/08 06:51:38;;;;;;;17.90;9.60;;;0.90;99.90;;;;;;5052233;28;20033;-73
2021/01/08 06:54:05;;;;;;;62.50;27.95;;;0.80;99.90;;;;;;5050281;28;20017;-73
2021/01/08 06:56:32;;;;;;;54.15;22.45;;;0.80;99.90;;;;;;5049793;28;20024;-71
2021/01/08 06:58:59;;;;;;;23.63;12.40;;;0.80;99.90;;;;;;5051978;28;20024;-72
2021/01/08 07:01:39;;;;;;;17.60;8.88;;;0.80;99.90;;;;;;5050481;28;20040;-71
2021/01/08 07:04:05;;;;;;;24.52;12.18;;;0.90;99.90;;;;;;5050974;28;20033;-71
2021/01/08 07:06:35;;;;;;;15.95;8.30;;;1.00;99.90;;;;;;5051339;28;20052;-70
2021/01/08 07:09:02;;;;;;;18.30;8.80;;;1.50;99.90;;;;;;5052122;28;20075;-72
2021/01/08 07:11:29;;;;;;;18.27;9.35;;;1.80;99.90;;;;;;5052119;28;20017;-73
2021/01/08 07:14:10;;;;;;;25.42;13.20;;;1.70;99.90;;;;;;5050366;28;20029;-73
2021/01/08 07:16:47;;;;;;;14.80;7.82;;;1.80;99.90;;;;;;5049435;28;20028;-74
2021/01/08 07:19:16;;;;;;;12.90;6.45;;;1.90;99.90;;;;;;5050225;28;20502;-73
2021/01/08 07:21:52;;;;;;;12.00;6.07;;;1.90;99.90;;;;;;5049932;28;20543;-72
2021/01/08 07:24:38;;;;;;;15.82;7.68;;;2.00;99.90;;;;;;5049896;28;20107;-72
2021/01/08 07:27:21;;;;;;;16.08;8.38;;;2.00;99.90;;;;;;5050348;28;20029;-73
2021/01/08 07:29:55;;;;;;;15.85;8.10;;;1.80;99.90;;;;;;5049862;28;20380;-70
2021/01/08 07:32:33;;;;;;;14.30;7.70;;;1.70;99.90;;;;;;5049907;28;20091;-73
2021/01/08 07:35:12;;;;;;;26.20;9.77;;;1.60;99.90;;;;;;5049617;28;20511;-71
2021/01/08 07:37:57;;;;;;;24.73;9.93;;;1.50;99.90;;;;;;5050327;28;20032;-74
2021/01/08 07:40:24;;;;;;;21.08;9.02;;;1.50;99.90;;;;;;5050971;28;20064;-73
2021/01/08 07:42:58;;;;;;;13.32;7.07;;;1.50;99.90;;;;;;5049798;28;20033;-71
2021/01/08 07:45:43;;;;;;;13.20;7.22;;;1.60;99.90;;;;;;5051308;28;20024;-74
2021/01/08 07:48:26;;;;;;;12.75;6.93;;;1.70;99.90;;;;;;5049469;28;20029;-73
2021/01/08 07:50:55;;;;;;;9.70;5.18;;;1.70;99.90;;;;;;5048812;28;20021;-70
2021/01/08 07:53:43;;;;;;;17.40;10.10;;;1.70;99.90;;;;;;5056918;28;20036;-72
2021/01/08 07:56:20;;;;;;;12.02;7.18;;;1.70;99.90;;;;;;5049371;28;20115;-74
2021/01/08 07:58:59;;;;;;;11.55;6.60;;;1.60;99.90;;;;;;5050992;28;20369;-74
2021/01/08 08:01:25;;;;;;;12.32;7.28;;;1.80;99.90;;;;;;5050018;28;20036;-73
2021/01/08 08:03:58;;;;;;;11.50;6.80;;;2.00;99.90;;;;;;5050324;28;20025;-74
2021/01/08 08:06:29;;;;;;;10.32;6.22;;;1.90;99.90;;;;;;5050087;28;20460;-73
2021/01/08 08:08:59;;;;;;;13.57;8.00;;;1.90;99.90;;;;;;5046924;28;20029;-73
2021/01/08 08:11:32;;;;;;;9.68;5.45;;;1.90;99.90;;;;;;5048209;28;20021;-71
2021/01/08 08:13:58;;;;;;;9.02;4.85;;;2.10;99.90;;;;;;5045494;28;20033;-73
2021/01/08 08:16:30;;;;;;;10.63;5.40;;;2.10;99.90;;;;;;5047120;28;20132;-73
2021/01/08 08:18:55;;;;;;;11.20;6.38;;;2.20;99.90;;;;;;5049080;28;20021;-73
2021/01/08 08:21:22;;;;;;;9.38;5.38;;;2.10;99.90;;;;;;5048440;28;20029;-74
2021/01/08 08:23:52;;;;;;;8.68;5.07;;;2.10;99.90;;;;;;5036310;28;20021;-74
2021/01/08 08:26:17;;;;;;;11.23;6.20;;;2.20;99.90;;;;;;5043182;28;20021;-74
2021/01/08 08:28:43;;;;;;;10.85;6.03;;;2.10;99.90;;;;;;5063109;28;20047;-71
2021/01/08 08:31:08;;;;;;;11.95;6.00;;;2.10;99.90;;;;;;5050665;28;20035;-73
2021/01/08 08:33:34;;;;;;;10.80;6.05;;;2.10;99.90;;;;;;5045355;28;20543;-73
2021/01/08 08:35:59;;;;;;;8.77;5.00;;;2.10;99.90;;;;;;5055903;28;20033;-71
2021/01/08 08:38:25;;;;;;;18.05;5.22;;;2.20;99.90;;;;;;5057220;28;20029;-72
2021/01/08 08:40:50;;;;;;;10.52;5.50;;;2.40;99.90;;;;;;5060541;28;20021;-73
2021/01/08 08:43:21;;;;;;;9.07;5.03;;;2.50;99.60;;;;;;5058846;28;20035;-72
2021/01/08 08:45:48;;;;;;;9.48;5.22;;;2.50;99.60;;;;;;5056351;28;20394;-72
2021/01/08 08:48:14;;;;;;;9.00;4.82;;;2.50;99.40;;;;;;5072256;28;20383;-71
2021/01/08 08:50:43;;;;;;;7.53;4.10;;;2.50;99.20;;;;;;5072918;28;20082;-72
2021/01/08 08:53:14;;;;;;;8.43;4.70;;;2.40;98.70;;;;;;5055921;28;20029;-73
2021/01/08 08:55:40;;;;;;;;;;;2.40;99.20;;;;;;5057585;28;20078;-73
2021/01/08 08:58:13;;;;;;;9.05;3.97;;;2.40;98.70;;;;;;5055299;28;20043;-72
2021/01/08 09:00:40;;;;;;;6.95;3.75;;;2.50;98.70;;;;;;5069731;28;20526;-73
2021/01/08 09:03:20;;;;;;;11.75;5.97;;;2.50;98.50;;;;;;5047222;28;20037;-72
2021/01/08 09:05:48;;;;;;;8.83;5.10;;;2.50;98.50;;;;;;5045822;28;20024;-73
2021/01/08 09:08:20;;;;;;;12.45;5.90;;;2.40;98.60;;;;;;5050176;28;20278;-72
2021/01/08 09:10:52;;;;;;;9.45;4.93;;;2.50;98.80;;;;;;5056934;28;20028;-73
2021/01/08 09:13:58;;;;;;;7.78;4.03;;;2.50;98.60;;;;;;5056786;28;20514;-74
2021/01/08 09:16:28;;;;;;;6.38;3.50;;;2.60;98.20;;;;;;5053774;28;20041;-73
2021/01/08 09:19:07;;;;;;;14.57;10.13;;;2.50;98.30;;;;;;5055769;28;20032;-72
2021/01/08 09:21:39;;;;;;;13.38;10.13;;;2.50;98.50;;;;;;5052930;28;20571;-73
2021/01/08 09:24:09;;;;;;;14.45;11.90;;;2.50;98.20;;;;;;5053518;28;20029;-73
2021/01/08 09:26:35;;;;;;;9.45;5.90;;;2.50;98.40;;;;;;5052896;28;20029;-74
2021/01/08 09:29:01;;;;;;;5.60;3.08;;;2.60;98.40;;;;;;5068929;28;20029;-73
2021/01/08 09:31:43;;;;;;;7.40;4.22;;;2.50;98.30;;;;;;5068857;28;20021;-73
2021/01/08 09:34:10;;;;;;;8.23;4.47;;;2.50;98.00;;;;;;5052157;28;20028;-74
2021/01/08 09:36:37;;;;;;;8.75;4.90;;;2.50;98.30;;;;;;5048295;28;20108;-74
2021/01/08 09:39:06;;;;;;;7.18;3.53;;;2.50;98.50;;;;;;5032134;28;20029;-74
2021/01/08 09:41:36;;;;;;;7.07;3.47;;;2.60;98.10;;;;;;5047521;28;20037;-74
2021/01/08 09:44:04;;;;;;;6.13;3.42;;;2.50;98.00;;;;;;5052045;28;20036;-74
2021/01/08 09:46:29;;;;;;;12.88;9.35;;;2.50;97.70;;;;;;5052577;28;20116;-73
2021/01/08 09:49:05;;;;;;;25.95;20.67;;;2.50;98.00;;;;;;5053242;28;20079;-74
2021/01/08 09:51:31;;;;;;;11.35;8.50;;;2.60;98.00;;;;;;5053196;28;20445;-72
2021/01/08 09:53:57;;;;;;;9.40;6.50;;;2.60;97.80;;;;;;5051264;28;20052;-74
2021/01/08 09:56:23;;;;;;;11.20;8.60;;;2.60;97.70;;;;;;5038582;28;20025;-74
2021/01/08 09:59:11;;;;;;;7.55;3.80;;;2.60;98.00;;;;;;5049550;28;20090;-72
2021/01/08 10:01:54;;;;;;;9.90;6.18;;;2.60;97.80;;;;;;5039034;28;20500;-73
2021/01/08 10:04:34;;;;;;;9.43;5.40;;;2.60;97.90;;;;;;5038331;28;20442;-74
2021/01/08 10:07:04;;;;;;;8.07;4.20;;;2.70;97.90;;;;;;5036939;28;20076;-74
2021/01/08 10:09:51;;;;;;;8.13;4.45;;;2.70;97.70;;;;;;5047893;28;20087;-73
2021/01/08 10:12:18;;;;;;;6.30;3.53;;;2.80;97.90;;;;;;5031368;28;20492;-74
2021/01/08 10:14:44;;;;;;;9.27;4.50;;;2.80;97.40;;;;;;5032903;28;20473;-72
2021/01/08 10:17:17;;;;;;;20.63;10.65;;;2.90;97.20;;;;;;5030514;28;20025;-72
2021/01/08 10:19:47;;;;;;;5.75;2.80;;;3.00;96.80;;;;;;5034896;28;20497;-71
2021/01/08 10:22:18;;;;;;;9.85;4.53;;;3.00;96.70;;;;;;5052742;28;20052;-73
2021/01/08 10:24:43;;;;;;;13.52;5.97;;;3.00;96.80;;;;;;5051639;28;20021;-73
2021/01/08 10:27:09;;;;;;;16.05;5.57;;;3.00;96.80;;;;;;5042373;28;20420;-72
2021/01/08 10:29:39;;;;;;;47.78;16.65;;;3.10;96.60;;;;;;5041470;28;20079;-72
2021/01/08 10:32:09;;;;;;;17.67;6.00;;;3.10;97.10;;;;;;5041190;28;20396;-72
2021/01/08 10:34:36;;;;;;;7.20;3.47;;;3.10;96.90;;;;;;5044634;28;20410;-75
2021/01/08 10:37:02;;;;;;;6.05;3.60;;;3.10;96.80;;;;;;5046595;28;20225;-74
2021/01/08 10:39:28;;;;;;;6.57;3.67;;;3.10;96.90;;;;;;5042106;28;20020;-75
2021/01/08 10:41:53;;;;;;;7.00;3.78;;;3.10;96.70;;;;;;5032738;28;20029;-74
2021/01/08 10:44:19;;;;;;;7.60;3.80;;;3.00;96.90;;;;;;5030639;28;20032;-75
2021/01/08 10:46:44;;;;;;;5.93;3.30;;;2.90;97.60;;;;;;5046858;28;20029;-75
2021/01/08 10:49:10;;;;;;;7.10;3.35;;;3.00;97.30;;;;;;5050096;28;20032;-74
2021/01/08 10:51:35;;;;;;;7.60;3.97;;;3.10;96.60;;;;;;5050404;28;20112;-75
2021/01/08 10:54:01;;;;;;;8.68;3.92;;;3.10;96.80;;;;;;5042393;28;20388;-74
2021/01/08 10:56:30;;;;;;;8.15;4.03;;;3.10;96.90;;;;;;5040207;28;20026;-75
2021/01/08 10:58:56;;;;;;;6.93;3.58;;;3.20;96.90;;;;;;5065513;28;20120;-75
2021/01/08 11:01:22;;;;;;;9.20;4.50;;;3.20;96.50;;;;;;5041859;28;20025;-75
2021/01/08 11:03:47;;;;;;;6.80;3.53;;;3.20;96.50;;;;;;5034290;28;20676;-74
2021/01/08 11:06:19;;;;;;;7.00;3.72;;;3.20;96.10;;;;;;5029868;28;20032;-75
2021/01/08 11:08:45;;;;;;;6.97;3.28;;;3.20;96.70;;;;;;5030381;28;20026;-75
2021/01/08 11:11:14;;;;;;;7.03;3.55;;;3.20;96.40;;;;;;5030481;28;20124;-75
2021/01/08 11:13:40;;;;;;;7.47;3.92;;;3.20;96.80;;;;;;5031560;28;20033;-74
2021/01/08 11:16:06;;;;;;;6.65;3.63;;;3.30;96.20;;;;;;5034283;28;20082;-70
2021/01/08 11:18:31;;;;;;;9.70;4.00;;;3.30;96.20;;;;;;5071700;28;20032;-75
2021/01/08 11:20:57;;;;;;;7.55;4.00;;;3.20;96.40;;;;;;5071746;28;20479;-75
2021/01/08 11:23:22;;;;;;;6.43;3.58;;;3.30;96.50;;;;;;5087597;28;20025;-75
2021/01/08 11:25:48;;;;;;;6.72;4.00;;;3.30;96.20;;;;;;5070744;28;20025;-75
2021/01/08 11:28:13;;;;;;;6.30;3.35;;;3.30;96.30;;;;;;5071549;28;20571;-75
2021/01/08 11:30:39;;;;;;;7.28;4.05;;;3.30;95.90;;;;;;5070363;28;20016;-74
2021/01/08 11:33:05;;;;;;;6.82;3.67;;;3.30;95.80;;;;;;5087415;28;20486;-74
2021/01/08 11:35:30;;;;;;;6.47;4.03;;;3.30;96.00;;;;;;5071516;28;20031;-75
2021/01/08 11:37:56;;;;;;;9.30;4.63;;;3.30;96.00;;;;;;5070856;28;20056;-74
2021/01/08 11:40:22;;;;;;;7.60;3.80;;;3.40;96.00;;;;;;5070962;28;20497;-75
2021/01/08 11:42:48;;;;;;;8.25;4.35;;;3.40;96.00;;;;;;5064667;28;20027;-75
2021/01/08 11:45:14;;;;;;;7.57;4.07;;;3.40;96.30;;;;;;5046207;28;20033;-73
2021/01/08 11:47:39;;;;;;;11.63;5.18;;;3.40;96.00;;;;;;5030445;28;20524;-73
2021/01/08 11:50:06;;;;;;;10.50;4.82;;;3.40;95.90;;;;;;5031013;28;20083;-73
2021/01/08 11:52:31;;;;;;;7.00;3.78;;;3.40;96.10;;;;;;5029728;28;20029;-73
2021/01/08 11:54:57;;;;;;;8.40;4.00;;;3.30;96.20;;;;;;5046394;28;20021;-74
2021/01/08 11:57:22;;;;;;;7.25;3.90;;;3.40;96.00;;;;;;5029389;28;20029;-74
2021/01/08 11:59:50;;;;;;;8.32;4.32;;;3.40;96.00;;;;;;5046231;28;20439;-75
2021/01/08 12:02:16;;;;;;;8.80;4.00;;;3.50;96.00;;;;;;5029500;28;20052;-74
2021/01/08 12:04:41;;;;;;;7.57;3.95;;;3.50;96.00;;;;;;5046193;28;20029;-74
2021/01/08 12:07:07;;;;;;;7.78;4.35;;;3.50;96.40;;;;;;5030220;28;20456;-74
2021/01/08 12:09:33;;;;;;;9.10;4.53;;;3.40;96.00;;;;;;5029557;28;20022;-74
2021/01/08 12:12:03;;;;;;;6.68;3.70;;;3.40;96.10;;;;;;5030872;28;20053;-74
2021/01/08 12:14:31;;;;;;;8.50;4.25;;;3.40;96.30;;;;;;5029442;28;20029;-74
2021/01/08 12:17:10;;;;;;;7.72;4.00;;;3.50;96.00;;;;;;5030124;28;20083;-74
2021/01/08 12:19:37;;;;;;;9.98;4.03;;;3.50;95.70;;;;;;5030778;28;20034;-74
2021/01/08 12:22:03;;;;;;;8.75;4.25;;;3.50;96.00;;;;;;5029432;28;20430;-74
2021/01/08 12:24:28;;;;;;;6.97;3.63;;;3.50;95.70;;;;;;5030812;28;20033;-74
2021/01/08 12:26:55;;;;;;;8.00;4.22;;;3.60;95.40;;;;;;5045481;28;20567;-74
2021/01/08 12:29:21;;;;;;;7.60;3.90;;;3.60;95.50;;;;;;5030726;28;20026;-75
2021/01/08 12:31:47;;;;;;;9.27;4.13;;;3.70;96.10;;;;;;5030706;28;20151;-74
2021/01/08 12:34:13;;;;;;;8.20;3.85;;;3.70;95.60;;;;;;5029441;28;20509;-74
2021/01/08 12:36:38;;;;;;;7.25;3.80;;;3.70;95.80;;;;;;5028629;28;20033;-74
2021/01/08 12:39:05;;;;;;;8.23;4.20;;;3.60;95.80;;;;;;5029327;28;20017;-74
2021/01/08 12:41:31;;;;;;;7.95;4.00;;;3.80;96.00;;;;;;5030648;28;20025;-74
2021/01/08 12:43:57;;;;;;;8.40;3.95;;;3.80;95.80;;;;;;5046610;28;20040;-73
2021/01/08 12:46:23;;;;;;;7.72;4.38;;;3.80;95.90;;;;;;5029793;28;20030;-74
2021/01/08 12:48:48;;;;;;;7.60;4.22;;;3.80;96.30;;;;;;5031383;28;20040;-74
2021/01/08 12:51:14;;;;;;;5.90;3.22;;;3.90;95.70;;;;;;5057740;28;20079;-74
2021/01/08 12:53:41;;;;;;;7.30;4.25;;;3.90;95.60;;;;;;5048611;28;20068;-74